FIN2L EDDL-EFHK
Flight info
| Callsign | FIN2L |
|---|---|
| Flight time | N/A |
| Altitude | 37000 |
| Route | MEVEL4T MEVEL L179 MISRI Z851 ROBEG DCT ROSOK DCT SULIV M726 SALLO DCT NEBSI DCT ALAMI/N0448F370 DCT OKEVU DCT EVADI Y370 DIVAM |
| Aircraft | A320/M-SDE3FGHIRWY/LB1 |
Departure
| Time | N/A |
|---|---|
| Airport | Düsseldorf Airport (EDDL) |
Arrival
| Time | 2026-04-24 19:55 |
|---|---|
| Airport | Helsinki Vantaa Airport (EFHK) |
| Time | Latitude | Longitude | Altitude | Speed | Heading |
|---|---|---|---|---|---|
| 2026-04-24 18:54 | 56.27717 | 15.69537 | 36934 ft | 459 kts | 38° |
| 2026-04-24 18:55 | 56.34490 | 15.81683 | 36930 ft | 461 kts | 38° |
| 2026-04-24 18:56 | 56.39031 | 15.89849 | 36971 ft | 461 kts | 38° |
| 2026-04-24 18:56 | 56.43563 | 15.98022 | 36963 ft | 460 kts | 39° |
| 2026-04-24 18:57 | 56.48089 | 16.06219 | 36949 ft | 460 kts | 39° |
| 2026-04-24 18:57 | 56.52606 | 16.14425 | 36943 ft | 460 kts | 39° |
| 2026-04-24 18:58 | 56.57117 | 16.22662 | 36940 ft | 460 kts | 39° |
| 2026-04-24 18:58 | 56.61624 | 16.30920 | 36958 ft | 459 kts | 39° |
| 2026-04-24 18:59 | 56.66112 | 16.39178 | 36947 ft | 459 kts | 39° |
| 2026-04-24 18:59 | 56.70558 | 16.47381 | 36946 ft | 458 kts | 39° |
| 2026-04-24 19:00 | 56.75033 | 16.55662 | 36948 ft | 458 kts | 40° |
| 2026-04-24 19:00 | 56.79503 | 16.63965 | 36947 ft | 459 kts | 40° |
| 2026-04-24 19:01 | 56.83965 | 16.72292 | 36974 ft | 459 kts | 40° |
| 2026-04-24 19:01 | 56.88427 | 16.80645 | 36969 ft | 459 kts | 40° |
| 2026-04-24 19:02 | 56.92142 | 16.87614 | 36961 ft | 459 kts | 40° |
| 2026-04-24 19:02 | 56.97348 | 16.97419 | 36959 ft | 459 kts | 41° |
| 2026-04-24 19:03 | 57.01795 | 17.05849 | 36955 ft | 459 kts | 41° |
| 2026-04-24 19:03 | 57.06235 | 17.14286 | 36974 ft | 459 kts | 41° |
| 2026-04-24 19:04 | 57.10679 | 17.22729 | 36963 ft | 459 kts | 41° |
| 2026-04-24 19:04 | 57.15113 | 17.31191 | 36962 ft | 459 kts | 41° |
| 2026-04-24 19:05 | 57.19505 | 17.39635 | 36947 ft | 459 kts | 41° |
| 2026-04-24 19:05 | 57.23917 | 17.48152 | 36953 ft | 459 kts | 41° |
| 2026-04-24 19:06 | 57.28329 | 17.56687 | 36963 ft | 459 kts | 41° |
| 2026-04-24 19:06 | 57.32733 | 17.65240 | 36954 ft | 459 kts | 42° |
| 2026-04-24 19:07 | 57.37129 | 17.73803 | 36949 ft | 459 kts | 42° |
| 2026-04-24 19:07 | 57.40787 | 17.80957 | 36947 ft | 459 kts | 42° |
| 2026-04-24 19:08 | 57.45916 | 17.91014 | 36939 ft | 459 kts | 42° |
| 2026-04-24 19:08 | 57.50297 | 17.99643 | 36939 ft | 459 kts | 42° |
| 2026-04-24 19:09 | 57.54670 | 18.08305 | 36932 ft | 459 kts | 42° |
| 2026-04-24 19:09 | 57.59035 | 18.16981 | 36932 ft | 459 kts | 42° |
| 2026-04-24 19:10 | 57.63394 | 18.25664 | 36932 ft | 459 kts | 42° |
| 2026-04-24 19:10 | 57.67730 | 18.34318 | 36936 ft | 459 kts | 42° |
| 2026-04-24 19:11 | 57.72078 | 18.43069 | 36960 ft | 459 kts | 43° |
| 2026-04-24 19:11 | 57.76419 | 18.51851 | 36946 ft | 459 kts | 43° |
| 2026-04-24 19:12 | 57.80762 | 18.60632 | 36933 ft | 459 kts | 43° |
| 2026-04-24 19:12 | 57.85098 | 18.69440 | 36928 ft | 459 kts | 43° |
| 2026-04-24 19:13 | 57.88724 | 18.76841 | 36919 ft | 460 kts | 43° |
| 2026-04-24 19:13 | 57.93763 | 18.87149 | 36937 ft | 460 kts | 43° |
| 2026-04-24 19:14 | 57.97364 | 18.94532 | 36931 ft | 460 kts | 43° |
| 2026-04-24 19:14 | 58.01681 | 19.03423 | 36926 ft | 460 kts | 44° |
| 2026-04-24 19:15 | 58.05990 | 19.12345 | 36921 ft | 460 kts | 44° |
| 2026-04-24 19:15 | 58.10295 | 19.21295 | 36920 ft | 460 kts | 44° |
| 2026-04-24 19:16 | 58.16742 | 19.34744 | 36935 ft | 460 kts | 44° |
| 2026-04-24 19:16 | 58.21026 | 19.43741 | 36926 ft | 459 kts | 44° |
| 2026-04-24 19:17 | 58.25279 | 19.52696 | 36926 ft | 460 kts | 44° |
| 2026-04-24 19:17 | 58.29557 | 19.61745 | 36917 ft | 460 kts | 44° |
| 2026-04-24 19:18 | 58.33832 | 19.70810 | 36913 ft | 460 kts | 44° |
| 2026-04-24 19:18 | 58.38104 | 19.79901 | 36931 ft | 461 kts | 45° |
| 2026-04-24 19:19 | 58.42369 | 19.89020 | 36916 ft | 461 kts | 45° |
| 2026-04-24 19:19 | 58.46629 | 19.98177 | 36912 ft | 461 kts | 45° |
| 2026-04-24 19:20 | 58.50873 | 20.07342 | 36904 ft | 461 kts | 45° |
| 2026-04-24 19:20 | 58.55123 | 20.16530 | 36903 ft | 461 kts | 45° |
| 2026-04-24 19:21 | 58.59364 | 20.25750 | 36920 ft | 461 kts | 45° |
| 2026-04-24 19:21 | 58.63590 | 20.34993 | 36909 ft | 461 kts | 45° |
| 2026-04-24 19:22 | 58.67812 | 20.44256 | 36902 ft | 461 kts | 45° |
| 2026-04-24 19:22 | 58.72037 | 20.53537 | 36888 ft | 461 kts | 45° |
| 2026-04-24 19:23 | 58.74149 | 20.58184 | 36675 ft | 460 kts | 45° |
| 2026-04-24 19:23 | 58.76253 | 20.62825 | 36211 ft | 460 kts | 46° |
| 2026-04-24 19:23 | 58.78353 | 20.67480 | 35762 ft | 460 kts | 46° |
| 2026-04-24 19:23 | 58.80452 | 20.72156 | 35335 ft | 461 kts | 46° |
| 2026-04-24 19:24 | 58.82553 | 20.76841 | 34901 ft | 461 kts | 46° |
| 2026-04-24 19:24 | 58.84655 | 20.81515 | 34470 ft | 461 kts | 45° |
| 2026-04-24 19:24 | 58.86975 | 20.85752 | 34050 ft | 457 kts | 35° |
| 2026-04-24 19:24 | 58.89587 | 20.89060 | 33597 ft | 454 kts | 25° |
| 2026-04-24 19:25 | 58.92515 | 20.91471 | 33101 ft | 450 kts | 14° |
| 2026-04-24 19:25 | 58.95551 | 20.92810 | 32612 ft | 447 kts | 5° |
| 2026-04-24 19:25 | 58.98651 | 20.93301 | 32136 ft | 448 kts | 4° |
| 2026-04-24 19:25 | 59.01684 | 20.94672 | 31663 ft | 453 kts | 19° |
| 2026-04-24 19:26 | 59.04509 | 20.97458 | 31195 ft | 458 kts | 31° |
| 2026-04-24 19:26 | 59.07027 | 21.01285 | 30769 ft | 462 kts | 41° |
| 2026-04-24 19:26 | 59.09153 | 21.05876 | 30330 ft | 465 kts | 51° |
| 2026-04-24 19:26 | 59.10939 | 21.11135 | 29882 ft | 466 kts | 56° |
| 2026-04-24 19:27 | 59.12646 | 21.16475 | 29364 ft | 463 kts | 57° |
| 2026-04-24 19:27 | 59.14346 | 21.21883 | 28831 ft | 460 kts | 57° |
| 2026-04-24 19:27 | 59.15979 | 21.27131 | 28343 ft | 457 kts | 57° |
| 2026-04-24 19:27 | 59.17618 | 21.32429 | 27842 ft | 454 kts | 57° |
| 2026-04-24 19:28 | 59.19245 | 21.37706 | 27365 ft | 451 kts | 57° |
| 2026-04-24 19:28 | 59.20861 | 21.42945 | 26889 ft | 449 kts | 56° |
| 2026-04-24 19:28 | 59.22465 | 21.48146 | 26415 ft | 446 kts | 56° |
| 2026-04-24 19:28 | 59.24060 | 21.53319 | 25955 ft | 443 kts | 56° |
| 2026-04-24 19:29 | 59.27222 | 21.63580 | 25080 ft | 439 kts | 56° |
| 2026-04-24 19:29 | 59.28790 | 21.68696 | 24627 ft | 436 kts | 56° |
| 2026-04-24 19:29 | 59.30342 | 21.73774 | 24206 ft | 434 kts | 55° |
| 2026-04-24 19:30 | 59.31883 | 21.78839 | 23786 ft | 432 kts | 56° |
| 2026-04-24 19:30 | 59.33415 | 21.83878 | 23362 ft | 429 kts | 55° |
| 2026-04-24 19:30 | 59.34936 | 21.88886 | 22857 ft | 426 kts | 55° |
| 2026-04-24 19:30 | 59.36445 | 21.93855 | 22362 ft | 423 kts | 55° |
| 2026-04-24 19:31 | 59.37943 | 21.98790 | 21870 ft | 419 kts | 55° |
| 2026-04-24 19:31 | 59.39411 | 22.03643 | 21388 ft | 416 kts | 55° |
| 2026-04-24 19:31 | 59.40877 | 22.08512 | 20928 ft | 413 kts | 55° |
| 2026-04-24 19:31 | 59.42331 | 22.13350 | 20466 ft | 409 kts | 55° |
| 2026-04-24 19:32 | 59.43769 | 22.18145 | 20011 ft | 406 kts | 55° |
| 2026-04-24 19:32 | 59.45201 | 22.22925 | 19586 ft | 404 kts | 54° |
| 2026-04-24 19:32 | 59.46620 | 22.27671 | 19145 ft | 402 kts | 54° |
| 2026-04-24 19:32 | 59.48032 | 22.32398 | 18710 ft | 399 kts | 54° |
| 2026-04-24 19:33 | 59.49431 | 22.37101 | 18275 ft | 396 kts | 54° |
| 2026-04-24 19:33 | 59.50816 | 22.41764 | 17807 ft | 394 kts | 54° |
| 2026-04-24 19:33 | 59.52195 | 22.46413 | 17312 ft | 390 kts | 54° |
| 2026-04-24 19:33 | 59.53553 | 22.51008 | 16836 ft | 387 kts | 54° |
| 2026-04-24 19:34 | 59.54896 | 22.55559 | 16361 ft | 383 kts | 54° |
| 2026-04-24 19:34 | 59.56232 | 22.60101 | 15888 ft | 380 kts | 54° |
| 2026-04-24 19:34 | 59.57550 | 22.64590 | 15433 ft | 377 kts | 54° |
| 2026-04-24 19:34 | 59.58858 | 22.69053 | 14980 ft | 374 kts | 54° |
| 2026-04-24 19:35 | 59.60155 | 22.73487 | 14534 ft | 371 kts | 54° |
| 2026-04-24 19:35 | 59.61435 | 22.77870 | 14096 ft | 366 kts | 54° |
| 2026-04-24 19:35 | 59.62688 | 22.82166 | 13668 ft | 363 kts | 54° |
| 2026-04-24 19:35 | 59.63936 | 22.86453 | 13187 ft | 360 kts | 55° |
| 2026-04-24 19:36 | 59.65180 | 22.90741 | 12700 ft | 356 kts | 55° |
| 2026-04-24 19:36 | 59.66404 | 22.94973 | 12222 ft | 353 kts | 55° |
| 2026-04-24 19:36 | 59.67619 | 22.99175 | 11743 ft | 350 kts | 55° |
| 2026-04-24 19:36 | 59.68824 | 23.03341 | 11278 ft | 347 kts | 55° |
| 2026-04-24 19:37 | 59.70016 | 23.07463 | 10824 ft | 343 kts | 55° |
| 2026-04-24 19:37 | 59.71198 | 23.11552 | 10377 ft | 340 kts | 55° |
| 2026-04-24 19:37 | 59.72366 | 23.15603 | 9931 ft | 337 kts | 55° |
| 2026-04-24 19:37 | 59.73520 | 23.19613 | 9775 ft | 329 kts | 55° |
| 2026-04-24 19:38 | 59.74616 | 23.23443 | 9794 ft | 309 kts | 55° |
| 2026-04-24 19:38 | 59.75642 | 23.27044 | 9799 ft | 292 kts | 55° |
| 2026-04-24 19:38 | 59.76627 | 23.30502 | 9801 ft | 286 kts | 55° |
| 2026-04-24 19:38 | 59.77609 | 23.33938 | 9802 ft | 285 kts | 54° |
| 2026-04-24 19:39 | 59.78590 | 23.37362 | 9802 ft | 285 kts | 55° |
| 2026-04-24 19:39 | 59.79567 | 23.40775 | 9802 ft | 285 kts | 55° |
| 2026-04-24 19:39 | 59.80547 | 23.44194 | 9802 ft | 285 kts | 54° |
| 2026-04-24 19:39 | 59.81585 | 23.47535 | 9810 ft | 284 kts | 51° |
| 2026-04-24 19:40 | 59.82669 | 23.50807 | 9802 ft | 284 kts | 50° |
| 2026-04-24 19:40 | 59.83772 | 23.54064 | 9791 ft | 284 kts | 50° |
| 2026-04-24 19:40 | 59.84878 | 23.57315 | 9751 ft | 283 kts | 50° |
| 2026-04-24 19:40 | 59.85971 | 23.60545 | 9360 ft | 281 kts | 50° |
| 2026-04-24 19:41 | 59.87052 | 23.63771 | 8954 ft | 279 kts | 50° |
| 2026-04-24 19:41 | 59.88109 | 23.66943 | 8559 ft | 277 kts | 51° |
| 2026-04-24 19:41 | 59.89165 | 23.70127 | 8161 ft | 275 kts | 51° |
| 2026-04-24 19:41 | 59.90214 | 23.73300 | 7761 ft | 273 kts | 51° |
| 2026-04-24 19:42 | 59.91252 | 23.76446 | 7396 ft | 270 kts | 51° |
| 2026-04-24 19:42 | 59.92291 | 23.79591 | 7013 ft | 267 kts | 51° |
| 2026-04-24 19:42 | 59.93307 | 23.82672 | 6787 ft | 265 kts | 51° |
| 2026-04-24 19:42 | 59.94306 | 23.85696 | 6789 ft | 265 kts | 51° |
| 2026-04-24 19:43 | 59.95321 | 23.88781 | 6782 ft | 266 kts | 52° |
| 2026-04-24 19:43 | 59.96331 | 23.91855 | 6525 ft | 264 kts | 52° |
| 2026-04-24 19:43 | 59.97335 | 23.94914 | 6115 ft | 262 kts | 52° |
| 2026-04-24 19:43 | 59.98342 | 23.97990 | 5658 ft | 260 kts | 52° |
| 2026-04-24 19:44 | 59.99313 | 24.00965 | 5232 ft | 259 kts | 53° |
| 2026-04-24 19:44 | 60.00294 | 24.03976 | 4808 ft | 257 kts | 53° |
| 2026-04-24 19:44 | 60.01266 | 24.06957 | 4366 ft | 255 kts | 53° |
| 2026-04-24 19:44 | 60.02235 | 24.09927 | 3933 ft | 255 kts | 53° |
| 2026-04-24 19:45 | 60.03203 | 24.12893 | 3439 ft | 255 kts | 54° |
| 2026-04-24 19:45 | 60.04170 | 24.15867 | 3061 ft | 254 kts | 54° |
| 2026-04-24 19:45 | 60.05138 | 24.18846 | 3026 ft | 256 kts | 54° |
| 2026-04-24 19:45 | 60.06112 | 24.21844 | 3026 ft | 257 kts | 54° |
| 2026-04-24 19:46 | 60.07085 | 24.24848 | 3025 ft | 257 kts | 54° |
| 2026-04-24 19:46 | 60.08058 | 24.27858 | 3024 ft | 257 kts | 54° |
| 2026-04-24 19:46 | 60.09019 | 24.30833 | 3025 ft | 257 kts | 54° |
| 2026-04-24 19:46 | 60.10000 | 24.33872 | 2869 ft | 255 kts | 54° |
| 2026-04-24 19:47 | 60.10961 | 24.36849 | 2418 ft | 253 kts | 54° |
| 2026-04-24 19:47 | 60.11912 | 24.39803 | 2312 ft | 250 kts | 54° |
| 2026-04-24 19:47 | 60.12816 | 24.42631 | 2315 ft | 231 kts | 54° |
| 2026-04-24 19:47 | 60.13646 | 24.45236 | 2318 ft | 214 kts | 54° |
| 2026-04-24 19:48 | 60.14421 | 24.47667 | 2311 ft | 199 kts | 54° |
| 2026-04-24 19:48 | 60.15149 | 24.49949 | 2317 ft | 189 kts | 54° |
| 2026-04-24 19:48 | 60.16565 | 24.54367 | 2306 ft | 187 kts | 54° |
| 2026-04-24 19:49 | 60.17959 | 24.58732 | 2308 ft | 187 kts | 54° |
| 2026-04-24 19:49 | 60.19360 | 24.63121 | 2309 ft | 186 kts | 54° |
| 2026-04-24 19:50 | 60.21652 | 24.69273 | 2313 ft | 170 kts | 44° |
| 2026-04-24 19:50 | 60.22409 | 24.70955 | 2300 ft | 154 kts | 43° |
| 2026-04-24 19:51 | 60.23765 | 24.73920 | 2272 ft | 139 kts | 42° |
| 2026-04-24 19:51 | 60.24415 | 24.75339 | 2186 ft | 136 kts | 43° |
| 2026-04-24 19:52 | 60.25687 | 24.78112 | 1840 ft | 133 kts | 43° |
| 2026-04-24 19:52 | 60.26315 | 24.79483 | 1662 ft | 133 kts | 43° |
| 2026-04-24 19:52 | 60.26940 | 24.80849 | 1478 ft | 132 kts | 43° |
| 2026-04-24 19:52 | 60.27564 | 24.82212 | 1290 ft | 133 kts | 44° |
| 2026-04-24 19:53 | 60.28191 | 24.83584 | 1098 ft | 133 kts | 45° |
| 2026-04-24 19:53 | 60.28817 | 24.84955 | 907 ft | 133 kts | 45° |
| 2026-04-24 19:53 | 60.30067 | 24.87695 | 546 ft | 132 kts | 46° |
| 2026-04-24 19:54 | 60.30690 | 24.89061 | 372 ft | 132 kts | 46° |
| 2026-04-24 19:54 | 60.31311 | 24.90420 | 205 ft | 132 kts | 45° |
| 2026-04-24 19:54 | 60.31885 | 24.91684 | 149 ft | 102 kts | 47° |
| 2026-04-24 19:54 | 60.32249 | 24.92478 | 167 ft | 53 kts | 47° |
| 2026-04-24 19:55 | 60.32319 | 24.92632 | 170 ft | 36 kts | 47° |
| 2026-04-24 19:55 | 60.32450 | 24.93162 | 175 ft | 15 kts | 76° |
| 2026-04-24 19:55 | 60.32472 | 24.93353 | 174 ft | 12 kts | 77° |
| 2026-04-24 19:55 | 60.32488 | 24.93499 | 173 ft | 8 kts | 77° |
| 2026-04-24 19:56 | 60.32500 | 24.93606 | 172 ft | 8 kts | 77° |
| 2026-04-24 19:56 | 60.32516 | 24.93743 | 171 ft | 15 kts | 77° |
| 2026-04-24 19:56 | 60.32570 | 24.93974 | 170 ft | 19 kts | 39° |
| 2026-04-24 19:56 | 60.32648 | 24.94160 | 172 ft | 18 kts | 48° |
| 2026-04-24 19:57 | 60.32705 | 24.94287 | 172 ft | 19 kts | 47° |
| 2026-04-24 19:57 | 60.32798 | 24.94492 | 174 ft | 21 kts | 47° |
| 2026-04-24 19:57 | 60.32901 | 24.94716 | 175 ft | 23 kts | 47° |
| 2026-04-24 19:57 | 60.33009 | 24.94954 | 176 ft | 24 kts | 47° |
| 2026-04-24 19:58 | 60.33128 | 24.95214 | 178 ft | 26 kts | 47° |
| 2026-04-24 19:58 | 60.33209 | 24.95443 | 182 ft | 17 kts | 83° |
| 2026-04-24 19:58 | 60.33148 | 24.95628 | 180 ft | 17 kts | 137° |
| 2026-04-24 19:58 | 60.33053 | 24.95792 | 181 ft | 18 kts | 148° |
| 2026-04-24 19:59 | 60.32934 | 24.95931 | 176 ft | 22 kts | 149° |
| 2026-04-24 19:59 | 60.32806 | 24.96082 | 173 ft | 22 kts | 149° |
| 2026-04-24 19:59 | 60.32679 | 24.96229 | 172 ft | 18 kts | 150° |
| 2026-04-24 19:59 | 60.32576 | 24.96351 | 173 ft | 17 kts | 150° |
| 2026-04-24 20:00 | 60.32472 | 24.96471 | 174 ft | 18 kts | 150° |
| 2026-04-24 20:00 | 60.32357 | 24.96605 | 172 ft | 21 kts | 150° |
| 2026-04-24 20:00 | 60.32218 | 24.96767 | 166 ft | 21 kts | 150° |
| 2026-04-24 20:00 | 60.32125 | 24.96876 | 166 ft | 10 kts | 150° |
| 2026-04-24 20:01 | 60.32070 | 24.96939 | 166 ft | 9 kts | 150° |
| 2026-04-24 20:01 | 60.32019 | 24.96995 | 166 ft | 8 kts | 152° |
| 2026-04-24 20:01 | 60.31976 | 24.97019 | 166 ft | 5 kts | 202° |
| 2026-04-24 20:01 | 60.31962 | 24.96987 | 166 ft | 2 kts | 240° |
| 2026-04-24 20:02 | 60.31958 | 24.96971 | 167 ft | 1 kts | 242° |
| 2026-04-24 20:02 | 60.31952 | 24.96949 | 167 ft | 2 kts | 242° |
| 2026-04-24 20:02 | 60.31945 | 24.96922 | 167 ft | 2 kts | 242° |
| 2026-04-24 20:02 | 60.31945 | 24.96921 | 167 ft | 0 kts | 242° |